createdAt,value
2024-04-10T00:04:06.664Z,70
2024-04-10T00:16:06.599Z,70
2024-04-10T00:28:05.539Z,70
2024-04-10T00:40:05.644Z,70
2024-04-10T00:52:05.904Z,70
2024-04-10T01:04:05.230Z,69.5
2024-04-10T01:16:05.509Z,69.5
2024-04-10T01:28:06.015Z,69.5
2024-04-10T01:40:05.871Z,69.5
2024-04-10T01:52:05.360Z,69
2024-04-10T02:04:05.408Z,69
2024-04-10T02:16:05.364Z,69
2024-04-10T02:28:06.072Z,69
2024-04-10T02:40:05.480Z,69
2024-04-10T02:52:05.671Z,69
2024-04-10T03:04:05.590Z,69
2024-04-10T03:16:05.773Z,69
2024-04-10T03:28:05.692Z,69
2024-04-10T03:40:05.597Z,68.5
2024-04-10T03:52:05.866Z,68.5
2024-04-10T04:04:06.005Z,68.5
2024-04-10T04:16:06.045Z,68.5
2024-04-10T04:28:05.422Z,68.5
2024-04-10T04:40:05.729Z,68.5
2024-04-10T04:52:05.673Z,67
2024-04-10T05:04:05.801Z,56.5
2024-04-10T05:16:05.763Z,58
2024-04-10T05:28:11.478Z,60
2024-04-10T05:40:05.374Z,62.5
2024-04-10T05:52:06.455Z,64
2024-04-10T06:04:05.814Z,65
2024-04-10T06:16:06.003Z,65.5
2024-04-10T06:28:05.631Z,66.5
2024-04-10T06:40:05.643Z,67
2024-04-10T06:52:06.004Z,62.5
2024-04-10T07:04:06.011Z,56
2024-04-10T07:16:06.023Z,57.5
2024-04-10T07:28:05.806Z,61
2024-04-10T07:40:05.648Z,62.5
2024-04-10T07:52:05.799Z,64.5
2024-04-10T08:04:05.866Z,65.5
2024-04-10T08:16:06.052Z,66.5
2024-04-10T08:28:06.088Z,67.5
2024-04-10T08:40:05.908Z,67.5
2024-04-10T08:52:06.008Z,68
2024-04-10T09:04:06.184Z,68.5
2024-04-10T09:16:06.120Z,69
2024-04-10T09:28:06.085Z,69
2024-04-10T09:40:06.213Z,69
2024-04-10T09:52:05.987Z,69.5
2024-04-10T10:04:06.031Z,70
2024-04-10T10:16:06.009Z,70
2024-04-10T10:28:06.061Z,71.5
2024-04-10T10:52:06.051Z,72.5
2024-04-10T11:04:06.199Z,72.5
2024-04-10T11:16:06.688Z,73.5
2024-04-10T11:28:05.794Z,74.5
2024-04-10T11:40:06.180Z,75.5
2024-04-10T11:52:06.400Z,75.5
2024-04-10T12:04:06.116Z,76.5
2024-04-10T12:16:06.052Z,76
2024-04-10T12:28:06.682Z,76.5
2024-04-10T12:40:06.416Z,76.5
2024-04-10T12:52:06.018Z,77
2024-04-10T13:04:06.154Z,75
2024-04-10T13:16:06.669Z,75
2024-04-10T13:28:06.862Z,75
2024-04-10T13:40:06.141Z,75
2024-04-10T13:52:06.171Z,75
2024-04-10T14:04:06.180Z,74
2024-04-10T14:16:06.634Z,73
2024-04-10T14:28:05.993Z,72
2024-04-10T14:40:06.368Z,75
2024-04-10T14:52:06.297Z,76
2024-04-10T15:04:06.345Z,77
2024-04-10T15:16:06.082Z,77.5
2024-04-10T15:28:06.188Z,77.5
2024-04-10T15:40:06.096Z,77.5
2024-04-10T15:52:13.570Z,78.5
2024-04-10T16:04:06.357Z,78.5
2024-04-10T16:16:06.330Z,78.5
2024-04-10T16:28:06.417Z,78
2024-04-10T16:40:06.343Z,77
2024-04-10T16:52:06.134Z,72
2024-04-10T17:04:06.397Z,71.5
2024-04-10T17:16:06.475Z,69.5
2024-04-10T17:28:06.152Z,68
2024-04-10T17:40:06.359Z,68
2024-04-10T17:52:06.485Z,69.5
2024-04-10T18:04:06.305Z,72.5
2024-04-10T18:16:06.440Z,73.5
2024-04-10T18:28:06.320Z,74
2024-04-10T18:40:06.409Z,75.5
2024-04-10T18:52:06.473Z,75.5
2024-04-10T19:04:06.598Z,75.5
2024-04-10T19:16:06.589Z,76.5
2024-04-10T19:28:06.298Z,76.5
2024-04-10T19:40:06.242Z,76.5
2024-04-10T19:52:06.446Z,77
2024-04-10T20:04:06.792Z,77
2024-04-10T20:16:06.491Z,77
2024-04-10T20:28:06.291Z,77
2024-04-10T20:40:07.075Z,77.5
2024-04-10T20:52:06.429Z,77.5
2024-04-10T21:04:06.390Z,71
2024-04-10T21:16:06.493Z,68
2024-04-10T22:04:06.705Z,77.5
2024-04-10T22:16:06.677Z,78
2024-04-10T22:28:06.934Z,79
2024-04-10T22:40:06.879Z,80.5
2024-04-10T22:52:06.766Z,81
2024-04-10T23:04:06.596Z,81
2024-04-10T23:16:06.737Z,81
2024-04-10T23:28:06.729Z,81
2024-04-10T23:40:06.847Z,80.5
2024-04-10T23:52:07.202Z,80.5
